KCRG/CRG METAR and TAF weather

Enter ICAO airport designator
Station Type Date Time Source
KCRG METAR 2022/06/26 07:53 UTC NOAA

KCRG 260753Z 00000KT 10SM CLR 24/21 A3005 RMK AO2 SLP176 T02440206


Station Type Date Time Source
KCRG Decoded METAR 2022/06/26 07:53 UTC NOAA

JACKSONVILLE CRAIG MUN, FL, United States (KCRG) 30-20N 81-31W 13M
Jun 26, 2022 - 03:53 AM EDT / 2022.06.26 0753 UTC
Wind: Calm:0
Visibility: 10 mile(s):0
Sky conditions: clear
Temperature: 75.9 F (24.4 C)
Dew Point: 69.1 F (20.6 C)
Relative Humidity: 79%
Pressure (altimeter): 30.05 in. Hg (1017 hPa)
ob: KCRG 260753Z 00000KT 10SM CLR 24/21 A3005 RMK AO2 SLP176 T02440206
cycle: 8

Station Type Date Time Source
KCRG TAF 2022/06/26 06:42 UTC NOAA

TAF KCRG 260540Z 2606/2706 08003KT P6SM VCSH FEW025 BKN250
FM261400 08011KT P6SM SCT030 SCT250
TEMPO 2614/2617 BKN025
FM261700 08013G21KT P6SM SCT040 BKN250
FM270000 08007KT P6SM FEW035

Example: see airport list